TimeMDT,TemperatureF,Dew PointF,Humidity,Sea Level PressureIn,VisibilityMPH,Wind Direction,Wind SpeedMPH,Gust SpeedMPH,PrecipitationIn,Events,Conditions,WindDirDegrees,DateUTC
12:11 AM,71.6,57.2,60,29.96,10.0,NW,9.2,-,N/A,Thunderstorm,Thunderstorm,310,2013-07-23 06:11:00
12:29 AM,71.6,57.2,60,30.00,10.0,Variable,6.9,-,N/A,Rain-Thunderstorm,Light Rain,0,2013-07-23 06:29:00
12:33 AM,71.6,57.2,60,30.00,9.0,NE,11.5,-,N/A,Rain-Thunderstorm,Thunderstorms and Rain,50,2013-07-23 06:33:00
12:35 AM,71.6,59.0,64,30.00,6.0,NE,23.0,27.6,N/A,Rain-Thunderstorm,Light Rain,50,2013-07-23 06:35:00
12:42 AM,69.8,60.8,73,30.01,6.0,NE,16.1,36.8,N/A,Rain-Thunderstorm,Light Thunderstorms and Rain,40,2013-07-23 06:42:00
12:43 AM,69.8,60.8,73,30.02,6.0,NE,16.1,36.8,N/A,Rain-Thunderstorm,Light Thunderstorms and Rain,40,2013-07-23 06:43:00
12:44 AM,68.0,60.8,78,30.03,9.0,NE,20.7,36.8,N/A,Rain,Light Rain,40,2013-07-23 06:44:00
12:58 AM,66.6,59.2,77,29.92,10.0,ENE,23.0,28.8,0.06,Rain,Light Rain,60,2013-07-23 06:58:00
1:02 AM,64.4,59.0,83,30.01,10.0,East,12.7,27.6,N/A,Rain,Light Rain,80,2013-07-23 07:02:00
1:23 AM,62.6,57.2,82,30.00,10.0,East,13.8,-,N/A,,Scattered Clouds,80,2013-07-23 07:23:00
1:58 AM,62.6,57.7,84,29.92,10.0,East,13.8,-,0.01,,Clear,100,2013-07-23 07:58:00
2:58 AM,61.0,57.7,89,29.92,10.0,South,6.9,-,N/A,,Clear,180,2013-07-23 08:58:00
3:58 AM,60.8,57.4,88,29.92,10.0,SSW,5.8,-,N/A,,Clear,210,2013-07-23 09:58:00
4:58 AM,59.2,56.5,91,29.91,10.0,West,2.3,-,N/A,,Clear,260,2013-07-23 10:58:00
5:58 AM,61.7,57.6,86,29.95,10.0,ENE,5.8,-,N/A,,Scattered Clouds,60,2013-07-23 11:58:00
6:58 AM,61.5,57.9,88,29.95,10.0,East,8.1,-,N/A,,Clear,90,2013-07-23 12:58:00
7:58 AM,63.3,58.5,84,29.99,10.0,ENE,9.2,-,N/A,,Clear,70,2013-07-23 13:58:00
8:08 AM,62.6,59.0,88,30.04,10.0,East,8.1,-,N/A,,Partly Cloudy,80,2013-07-23 14:08:00
8:58 AM,64.2,59.5,85,30.00,10.0,SE,5.8,-,N/A,,Clear,140,2013-07-23 14:58:00
9:58 AM,68.5,60.3,75,30.01,10.0,SSE,6.9,-,N/A,,Clear,160,2013-07-23 15:58:00
10:58 AM,72.0,60.4,67,30.01,10.0,South,5.8,-,N/A,,Mostly Cloudy,180,2013-07-23 16:58:00
11:58 AM,76.3,62.2,62,29.99,10.0,Variable,5.8,-,N/A,,Scattered Clouds,0,2013-07-23 17:58:00
12:58 PM,79.5,61.3,54,30.00,10.0,Variable,3.5,-,N/A,,Clear,0,2013-07-23 18:58:00
1:58 PM,82.6,59.5,45,29.99,10.0,Variable,3.5,-,N/A,,Scattered Clouds,0,2013-07-23 19:58:00
2:58 PM,83.8,59.7,44,29.99,10.0,ENE,6.9,-,N/A,,Mostly Cloudy,60,2013-07-23 20:58:00
3:58 PM,84.0,59.2,43,29.99,10.0,Variable,2.3,-,N/A,,Partly Cloudy,0,2013-07-23 21:58:00
4:58 PM,84.2,55.2,37,29.99,10.0,NE,2.3,-,N/A,,Partly Cloudy,40,2013-07-23 22:58:00
5:58 PM,85.1,54.9,35,29.97,10.0,Variable,2.3,-,N/A,,Clear,0,2013-07-23 23:58:00
6:10 PM,84.2,55.4,37,30.03,10.0,West,4.6,-,N/A,,Light Drizzle,280,2013-07-24 00:10:00
6:20 PM,82.4,57.2,42,30.03,10.0,Variable,3.5,-,N/A,,Scattered Clouds,0,2013-07-24 00:20:00
6:58 PM,82.4,60.6,48,29.97,10.0,SSE,11.5,-,0.00,,Scattered Clouds,160,2013-07-24 00:58:00
7:58 PM,78.3,63.0,59,29.99,10.0,South,5.8,-,N/A,,Clear,190,2013-07-24 01:58:00
8:58 PM,74.3,62.4,66,30.00,10.0,South,4.6,-,N/A,,Clear,190,2013-07-24 02:58:00
9:58 PM,72.3,61.9,70,30.01,10.0,South,5.8,-,N/A,,Clear,180,2013-07-24 03:58:00
10:58 PM,69.6,61.9,76,30.03,9.0,South,4.6,-,N/A,,Clear,170,2013-07-24 04:58:00
11:58 PM,69.3,61.9,77,30.03,10.0,South,3.5,-,N/A,,Clear,180,2013-07-24 05:58:00